Time;durP1;ratioP1;P1;durP2;ratioP2;P2;SDS_P1;SDS_P2;PMS_P1;PMS_P2;Temp;Humidity;BMP_temperature;BMP_pressure;BME280_temperature;BME280_humidity;BME280_pressure;Samples;Min_cycle;Max_cycle;Signal;HPM_P1;HPM_P2
2023/12/02 00:02:25;;;;;;;13.32;7.00;;;;;;;;;;4995035;28;20045;-77
2023/12/02 00:04:50;;;;;;;9.63;6.53;;;;;;;;;;5011581;28;20034;-77
2023/12/02 00:07:16;;;;;;;8.73;6.38;;;;;;;;;;5006126;28;20038;-76
2023/12/02 00:09:42;;;;;;;10.35;7.22;;;;;;;;;;5003432;28;20058;-77
2023/12/02 00:12:07;;;;;;;12.80;6.97;;;;;;;;;;5009121;28;20026;-77
2023/12/02 00:14:33;;;;;;;8.95;6.22;;;;;;;;;;5009177;28;20021;-76
2023/12/02 00:16:58;;;;;;;10.50;5.90;;;;;;;;;;5003619;28;20030;-77
2023/12/02 00:19:24;;;;;;;10.65;6.82;;;;;;;;;;5003950;28;20485;-77
2023/12/02 00:21:50;;;;;;;11.80;7.47;;;;;;;;;;4994285;28;20270;-77
2023/12/02 00:24:16;;;;;;;9.77;6.40;;;;;;;;;;4992362;28;20033;-76
2023/12/02 00:26:41;;;;;;;7.38;5.18;;;;;;;;;;5006629;28;20470;-77
2023/12/02 00:29:07;;;;;;;12.63;8.52;;;;;;;;;;4999592;28;20411;-76
2023/12/02 00:31:32;;;;;;;11.07;7.28;;;;;;;;;;5005482;28;20037;-77
2023/12/02 00:33:57;;;;;;;9.43;6.82;;;;;;;;;;5004384;28;20034;-78
2023/12/02 00:36:23;;;;;;;8.13;5.90;;;;;;;;;;5005404;28;20447;-77
2023/12/02 00:38:49;;;;;;;14.82;6.55;;;;;;;;;;5013965;28;20119;-78
2023/12/02 00:41:14;;;;;;;9.50;6.60;;;;;;;;;;5010003;28;20038;-77
2023/12/02 00:43:39;;;;;;;10.52;7.40;;;;;;;;;;5006231;28;20030;-77
2023/12/02 00:46:05;;;;;;;9.80;5.82;;;;;;;;;;4998749;28;20038;-76
2023/12/02 00:48:30;;;;;;;9.40;6.60;;;;;;;;;;5000733;28;20049;-78
2023/12/02 00:50:56;;;;;;;4.05;3.28;;;;;;;;;;5003662;28;20030;-77
2023/12/02 00:53:21;;;;;;;11.80;6.88;;;;;;;;;;5008082;28;20569;-75
2023/12/02 00:55:46;;;;;;;13.68;6.40;;;;;;;;;;5009338;28;20639;-77
2023/12/02 00:58:12;;;;;;;9.57;6.05;;;;;;;;;;4998977;28;20413;-78
2023/12/02 01:00:37;;;;;;;12.25;5.05;;;;;;;;;;5012432;28;20494;-79
2023/12/02 01:03:02;;;;;;;6.20;4.40;;;;;;;;;;5007569;28;20474;-79
2023/12/02 01:05:28;;;;;;;5.82;4.25;;;;;;;;;;5015727;28;20453;-77
2023/12/02 01:07:53;;;;;;;6.15;3.90;;;;;;;;;;5011565;28;20048;-78
2023/12/02 01:10:18;;;;;;;18.23;5.18;;;;;;;;;;5010048;28;20039;-79
2023/12/02 01:12:43;;;;;;;6.43;5.07;;;;;;;;;;5012263;28;20046;-78
2023/12/02 01:15:09;;;;;;;8.30;4.63;;;;;;;;;;5013983;28;20649;-79
2023/12/02 01:17:34;;;;;;;4.18;2.78;;;;;;;;;;5013852;28;20042;-78
2023/12/02 01:19:59;;;;;;;9.43;5.30;;;;;;;;;;5014046;28;20026;-81
2023/12/02 01:22:25;;;;;;;6.93;4.82;;;;;;;;;;5017183;28;20037;-78
2023/12/02 01:24:50;;;;;;;9.07;6.82;;;;;;;;;;5014448;28;20050;-80
2023/12/02 01:27:15;;;;;;;23.55;5.63;;;;;;;;;;5009040;28;20038;-80
2023/12/02 01:29:40;;;;;;;20.38;5.70;;;;;;;;;;5014276;28;20461;-79
2023/12/02 01:32:06;;;;;;;5.38;3.83;;;;;;;;;;5012701;28;20064;-79
2023/12/02 01:34:31;;;;;;;7.50;5.00;;;;;;;;;;5008198;28;20033;-80
2023/12/02 01:36:56;;;;;;;6.30;4.68;;;;;;;;;;5012602;28;20041;-81
2023/12/02 01:39:22;;;;;;;7.47;5.22;;;;;;;;;;5018505;28;20437;-81
2023/12/02 01:41:47;;;;;;;5.43;3.95;;;;;;;;;;5018203;28;20032;-80
2023/12/02 01:44:12;;;;;;;5.93;4.82;;;;;;;;;;4999130;28;20030;-81
2023/12/02 01:46:38;;;;;;;7.03;5.18;;;;;;;;;;5013994;28;20040;-80
2023/12/02 01:49:04;;;;;;;5.22;4.05;;;;;;;;;;5015833;28;20044;-80
2023/12/02 01:51:30;;;;;;;4.85;3.65;;;;;;;;;;5016420;28;20038;-80
2023/12/02 01:53:56;;;;;;;7.68;5.45;;;;;;;;;;5013703;28;20022;-79
2023/12/02 01:56:21;;;;;;;10.82;5.82;;;;;;;;;;5015181;28;20034;-80
2023/12/02 01:58:47;;;;;;;6.97;5.10;;;;;;;;;;5010503;28;20041;-81
2023/12/02 02:01:12;;;;;;;8.15;5.70;;;;;;;;;;5016426;28;20042;-79
2023/12/02 02:03:38;;;;;;;7.15;4.90;;;;;;;;;;5014011;28;20117;-80
2023/12/02 02:06:03;;;;;;;6.32;4.68;;;;;;;;;;5007989;28;20041;-81
2023/12/02 02:08:28;;;;;;;11.95;7.05;;;;;;;;;;5009903;28;20038;-83
2023/12/02 02:10:58;;;;;;;8.82;5.78;;;;;;;;;;5016338;28;20061;-81
2023/12/02 02:13:24;;;;;;;5.95;4.80;;;;;;;;;;5007594;28;20462;-81
2023/12/02 02:15:49;;;;;;;7.82;6.00;;;;;;;;;;5013367;28;20041;-83
2023/12/02 02:18:15;;;;;;;9.40;5.82;;;;;;;;;;4993127;28;20051;-81
2023/12/02 02:20:40;;;;;;;7.43;5.10;;;;;;;;;;5017461;28;20482;-81
2023/12/02 02:23:05;;;;;;;8.10;5.78;;;;;;;;;;5014171;28;20044;-82
2023/12/02 02:25:30;;;;;;;8.80;5.60;;;;;;;;;;5012332;28;20107;-81
2023/12/02 02:27:56;;;;;;;8.95;5.47;;;;;;;;;;5015978;28;20112;-80
2023/12/02 02:30:23;;;;;;;6.78;4.50;;;;;;;;;;5015903;28;20029;-79
2023/12/02 02:32:49;;;;;;;8.63;5.25;;;;;;;;;;4996598;28;20060;-81
2023/12/02 02:35:14;;;;;;;5.15;4.15;;;;;;;;;;5009077;28;20026;-79
2023/12/02 02:37:39;;;;;;;9.90;6.82;;;;;;;;;;5016221;28;20474;-79
2023/12/02 02:40:05;;;;;;;6.68;5.40;;;;;;;;;;5014765;28;20045;-80
2023/12/02 02:42:33;;;;;;;7.60;5.40;;;;;;;;;;5015846;28;20050;-81
2023/12/02 02:44:59;;;;;;;8.10;5.40;;;;;;;;;;5014080;28;20026;-82
2023/12/02 02:47:24;;;;;;;10.32;6.90;;;;;;;;;;5018543;28;20049;-80
2023/12/02 02:49:49;;;;;;;6.15;4.53;;;;;;;;;;4998897;28;20041;-78
2023/12/02 02:52:15;;;;;;;7.55;4.88;;;;;;;;;;5016621;28;20038;-80
2023/12/02 02:54:40;;;;;;;13.63;9.20;;;;;;;;;;5017380;28;20510;-79
2023/12/02 02:57:05;;;;;;;7.78;5.47;;;;;;;;;;5019025;28;20052;-81
2023/12/02 02:59:31;;;;;;;12.55;6.82;;;;;;;;;;5017173;28;20053;-80
2023/12/02 03:01:56;;;;;;;11.75;6.43;;;;;;;;;;5018737;28;20046;-79
2023/12/02 03:04:22;;;;;;;7.55;5.40;;;;;;;;;;5011992;28;20038;-80
2023/12/02 03:06:47;;;;;;;7.93;4.55;;;;;;;;;;5012408;28;20062;-79
2023/12/02 03:09:14;;;;;;;7.82;5.93;;;;;;;;;;5010655;28;20108;-79
2023/12/02 03:11:39;;;;;;;10.82;7.35;;;;;;;;;;4995242;28;20076;-80
2023/12/02 03:14:05;;;;;;;9.43;6.15;;;;;;;;;;5004760;28;20030;-79
2023/12/02 03:16:30;;;;;;;7.32;4.72;;;;;;;;;;5012712;28;20422;-78
2023/12/02 03:18:56;;;;;;;10.20;6.90;;;;;;;;;;4997156;28;20042;-77
2023/12/02 03:21:21;;;;;;;11.65;7.32;;;;;;;;;;4997716;28;20018;-78
2023/12/02 03:23:49;;;;;;;9.48;6.40;;;;;;;;;;5013268;28;20211;-78
2023/12/02 03:26:14;;;;;;;8.40;5.55;;;;;;;;;;5004193;28;20513;-78
2023/12/02 03:28:40;;;;;;;12.32;6.53;;;;;;;;;;4993999;28;20033;-77
2023/12/02 03:31:05;;;;;;;9.00;5.55;;;;;;;;;;5010843;28;20121;-78
2023/12/02 03:33:30;;;;;;;11.68;8.10;;;;;;;;;;5011265;28;20046;-78
2023/12/02 03:35:56;;;;;;;11.68;7.68;;;;;;;;;;5012923;28;20113;-75
2023/12/02 03:38:21;;;;;;;11.00;7.50;;;;;;;;;;5000370;28;20052;-77
2023/12/02 03:40:46;;;;;;;9.70;6.75;;;;;;;;;;5001620;28;20041;-77
2023/12/02 03:43:11;;;;;;;9.85;6.50;;;;;;;;;;5005862;28;20040;-77
2023/12/02 03:45:37;;;;;;;14.30;8.63;;;;;;;;;;4996317;28;20398;-77
2023/12/02 03:48:03;;;;;;;12.63;8.48;;;;;;;;;;5006904;28;20102;-77
2023/12/02 03:50:28;;;;;;;12.82;8.55;;;;;;;;;;5008300;28;20542;-77
2023/12/02 03:52:53;;;;;;;8.95;6.35;;;;;;;;;;5005100;28;20034;-77
2023/12/02 03:55:19;;;;;;;12.45;8.13;;;;;;;;;;4997380;28;20518;-77
2023/12/02 03:57:44;;;;;;;12.43;6.85;;;;;;;;;;5001332;28;20169;-77
2023/12/02 04:00:13;;;;;;;12.45;7.07;;;;;;;;;;5003487;28;20034;-77
2023/12/02 04:02:38;;;;;;;9.38;6.60;;;;;;;;;;4992365;28;20029;-77
2023/12/02 04:05:08;;;;;;;9.98;6.55;;;;;;;;;;5003083;28;20045;-77
2023/12/02 04:07:34;;;;;;;12.68;6.40;;;;;;;;;;5006465;28;20042;-76
2023/12/02 04:09:59;;;;;;;11.68;7.32;;;;;;;;;;4990771;28;20104;-76
2023/12/02 04:12:24;;;;;;;14.63;7.10;;;;;;;;;;4997720;28;20450;-76
2023/12/02 04:14:50;;;;;;;12.88;7.55;;;;;;;;;;5007885;28;20049;-76
2023/12/02 04:17:15;;;;;;;65.63;8.20;;;;;;;;;;4991419;28;20089;-77
2023/12/02 04:19:40;;;;;;;13.07;7.30;;;;;;;;;;4993922;28;20494;-77
2023/12/02 04:22:06;;;;;;;26.20;6.75;;;;;;;;;;4997359;28;20542;-74
2023/12/02 04:24:31;;;;;;;14.98;7.28;;;;;;;;;;4991429;28;20045;-76
2023/12/02 04:26:57;;;;;;;14.50;9.07;;;;;;;;;;5003104;28;20034;-77
2023/12/02 04:29:22;;;;;;;11.52;6.70;;;;;;;;;;5007085;28;20054;-76
2023/12/02 04:31:47;;;;;;;12.07;8.02;;;;;;;;;;5001669;28;20134;-76
2023/12/02 04:34:14;;;;;;;10.95;7.30;;;;;;;;;;5001819;28;20034;-75
2023/12/02 04:36:39;;;;;;;27.27;9.70;;;;;;;;;;4999039;28;20136;-74
2023/12/02 04:39:04;;;;;;;9.25;6.95;;;;;;;;;;5007193;28;20483;-75
2023/12/02 04:41:30;;;;;;;10.25;6.97;;;;;;;;;;5003668;28;20017;-76
2023/12/02 04:43:55;;;;;;;14.20;5.45;;;;;;;;;;5000366;28;20050;-75
2023/12/02 04:46:20;;;;;;;12.13;7.35;;;;;;;;;;4996255;28;20467;-77
2023/12/02 04:48:45;;;;;;;10.80;6.25;;;;;;;;;;4998864;28;20038;-76
2023/12/02 04:51:11;;;;;;;10.15;6.78;;;;;;;;;;5003001;28;20110;-75
2023/12/02 04:53:36;;;;;;;7.63;5.50;;;;;;;;;;5001799;28;20077;-74
2023/12/02 04:56:01;;;;;;;11.68;5.85;;;;;;;;;;5002651;28;20063;-76
2023/12/02 04:58:27;;;;;;;19.80;6.47;;;;;;;;;;4999824;28;20115;-75
2023/12/02 05:00:53;;;;;;;9.90;7.25;;;;;;;;;;4994187;28;20038;-75
2023/12/02 05:03:18;;;;;;;12.18;7.40;;;;;;;;;;5003057;28;20572;-75
2023/12/02 05:05:44;;;;;;;10.02;6.63;;;;;;;;;;5006898;28;20053;-74
2023/12/02 05:08:09;;;;;;;11.50;7.13;;;;;;;;;;4993189;28;20080;-76
2023/12/02 05:10:35;;;;;;;13.25;8.23;;;;;;;;;;4995738;28;20069;-75
2023/12/02 05:13:00;;;;;;;10.45;5.18;;;;;;;;;;4999138;28;20274;-74
2023/12/02 05:15:26;;;;;;;15.13;8.40;;;;;;;;;;4992375;28;20033;-75
2023/12/02 05:17:51;;;;;;;10.15;6.43;;;;;;;;;;5000952;28;20370;-74
2023/12/02 05:20:17;;;;;;;7.93;5.35;;;;;;;;;;4994016;28;20443;-74
2023/12/02 05:22:42;;;;;;;23.30;7.47;;;;;;;;;;5002724;28;20030;-73
2023/12/02 05:25:08;;;;;;;11.85;7.10;;;;;;;;;;5009522;28;20637;-75
2023/12/02 05:27:33;;;;;;;12.13;6.88;;;;;;;;;;5007009;28;20041;-76
2023/12/02 05:29:59;;;;;;;22.30;8.57;;;;;;;;;;5012255;28;20117;-74
2023/12/02 05:32:25;;;;;;;14.27;8.07;;;;;;;;;;5000619;28;20077;-74
2023/12/02 05:34:50;;;;;;;15.85;8.65;;;;;;;;;;5003033;28;20498;-75
2023/12/02 05:37:15;;;;;;;18.77;7.68;;;;;;;;;;5004364;28;20037;-75
2023/12/02 05:39:41;;;;;;;10.85;6.93;;;;;;;;;;5004465;28;20062;-76
2023/12/02 05:42:06;;;;;;;13.07;7.50;;;;;;;;;;5008741;28;20080;-73
2023/12/02 05:44:32;;;;;;;9.50;6.32;;;;;;;;;;4997945;28;20064;-75
2023/12/02 05:46:57;;;;;;;7.93;5.78;;;;;;;;;;5005398;28;20093;-74
2023/12/02 05:49:23;;;;;;;14.55;8.00;;;;;;;;;;5001188;28;20030;-75
2023/12/02 05:51:48;;;;;;;12.30;7.78;;;;;;;;;;5009080;28;20030;-74
2023/12/02 05:54:13;;;;;;;16.98;7.80;;;;;;;;;;5009888;28;20486;-74
2023/12/02 05:56:38;;;;;;;16.70;9.13;;;;;;;;;;5005307;28;20030;-74
2023/12/02 05:59:04;;;;;;;22.80;13.27;;;;;;;;;;5009960;28;20455;-74
2023/12/02 06:01:29;;;;;;;17.48;10.45;;;;;;;;;;4996203;28;20037;-74
2023/12/02 06:03:55;;;;;;;15.88;9.23;;;;;;;;;;5009402;28;20125;-74
2023/12/02 06:06:20;;;;;;;19.02;9.32;;;;;;;;;;5007162;28;20110;-73
2023/12/02 06:08:45;;;;;;;18.30;9.55;;;;;;;;;;5010162;28;20119;-73
2023/12/02 06:11:11;;;;;;;23.67;12.93;;;;;;;;;;5006194;28;20433;-75
2023/12/02 06:13:36;;;;;;;22.42;10.32;;;;;;;;;;5000307;28;20030;-75
2023/12/02 06:16:01;;;;;;;15.65;8.65;;;;;;;;;;5000022;28;20409;-74
2023/12/02 06:18:27;;;;;;;17.90;8.98;;;;;;;;;;5007369;28;20062;-74
2023/12/02 06:20:53;;;;;;;16.20;8.43;;;;;;;;;;5009858;28;20201;-74
2023/12/02 06:23:18;;;;;;;22.38;10.90;;;;;;;;;;4999635;28;20128;-74
2023/12/02 06:25:43;;;;;;;18.05;9.40;;;;;;;;;;5005815;28;20034;-75
2023/12/02 06:28:09;;;;;;;19.05;8.75;;;;;;;;;;5000719;28;20062;-75
2023/12/02 06:30:34;;;;;;;23.25;11.60;;;;;;;;;;5009240;28;20038;-74
2023/12/02 06:32:59;;;;;;;19.10;10.63;;;;;;;;;;5009156;28;20421;-74
2023/12/02 06:35:24;;;;;;;21.27;10.48;;;;;;;;;;4999969;28;20120;-74
2023/12/02 06:37:50;;;;;;;26.58;12.30;;;;;;;;;;5007759;28;20048;-74
2023/12/02 06:40:15;;;;;;;23.55;12.48;;;;;;;;;;5009231;28;20041;-75
2023/12/02 06:42:41;;;;;;;17.35;9.35;;;;;;;;;;5004501;28;20568;-75
2023/12/02 06:45:06;;;;;;;26.15;13.60;;;;;;;;;;5009900;28;20057;-75
2023/12/02 06:47:32;;;;;;;21.48;12.02;;;;;;;;;;5002904;28;20513;-75
2023/12/02 06:49:57;;;;;;;61.15;14.43;;;;;;;;;;5008334;28;20041;-74
2023/12/02 06:52:22;;;;;;;54.55;12.90;;;;;;;;;;5006562;28;20042;-75
2023/12/02 06:54:47;;;;;;;28.45;10.95;;;;;;;;;;5007951;28;20047;-75
2023/12/02 06:57:13;;;;;;;19.95;10.90;;;;;;;;;;5005855;28;20022;-74
2023/12/02 06:59:38;;;;;;;18.52;10.07;;;;;;;;;;5008866;28;20033;-74
2023/12/02 07:02:03;;;;;;;28.92;9.57;;;;;;;;;;5008670;28;20418;-74
2023/12/02 07:04:29;;;;;;;20.83;10.30;;;;;;;;;;5007314;28;20045;-74
2023/12/02 07:06:54;;;;;;;23.58;10.65;;;;;;;;;;5003913;28;20095;-74
2023/12/02 07:09:19;;;;;;;18.48;10.45;;;;;;;;;;5008722;28;20046;-75
2023/12/02 07:11:45;;;;;;;21.40;10.75;;;;;;;;;;5008481;28;20033;-74
2023/12/02 07:14:10;;;;;;;20.55;11.73;;;;;;;;;;5005625;28;20502;-74
2023/12/02 07:16:35;;;;;;;25.42;11.25;;;;;;;;;;5007677;28;20046;-74
2023/12/02 07:19:01;;;;;;;17.52;9.02;;;;;;;;;;5008983;28;20048;-74
2023/12/02 07:21:26;;;;;;;19.88;10.68;;;;;;;;;;5000982;28;20121;-74
2023/12/02 07:23:51;;;;;;;25.33;13.05;;;;;;;;;;5004240;28;20545;-74
2023/12/02 07:26:17;;;;;;;26.50;13.07;;;;;;;;;;4984112;28;20179;-74
2023/12/02 07:28:42;;;;;;;16.90;9.73;;;;;;;;;;5004485;28;20026;-75
2023/12/02 07:31:14;;;;;;;22.58;11.32;;;;;;;;;;5004589;28;20490;-75
2023/12/02 07:33:40;;;;;;;29.02;9.40;;;;;;;;;;5003559;28;20040;-74
2023/12/02 07:36:06;;;;;;;22.40;11.88;;;;;;;;;;5003473;28;20482;-74
2023/12/02 07:38:31;;;;;;;18.25;9.38;;;;;;;;;;5004092;28;20034;-75
2023/12/02 07:40:56;;;;;;;20.42;10.68;;;;;;;;;;5007094;28;20399;-74
2023/12/02 07:43:21;;;;;;;15.82;9.13;;;;;;;;;;5002173;28;20038;-74
2023/12/02 07:45:47;;;;;;;17.40;9.25;;;;;;;;;;5007246;28;21159;-74
2023/12/02 07:48:12;;;;;;;19.85;10.90;;;;;;;;;;5005414;28;20092;-74
2023/12/02 07:50:38;;;;;;;13.35;8.07;;;;;;;;;;5007487;28;20218;-74
2023/12/02 07:53:03;;;;;;;25.30;9.80;;;;;;;;;;5003256;28;20041;-74
2023/12/02 07:55:28;;;;;;;20.95;10.20;;;;;;;;;;5006323;28;20053;-74
2023/12/02 07:57:53;;;;;;;20.35;9.50;;;;;;;;;;5006467;28;20111;-74
2023/12/02 08:00:19;;;;;;;19.73;8.80;;;;;;;;;;5007205;28;20117;-74
2023/12/02 08:02:44;;;;;;;17.10;9.50;;;;;;;;;;5008390;28;20025;-74
2023/12/02 08:05:10;;;;;;;13.57;8.20;;;;;;;;;;5004758;28;20038;-74
2023/12/02 08:07:35;;;;;;;19.80;9.65;;;;;;;;;;5006439;28;20055;-74
2023/12/02 08:10:01;;;;;;;17.90;8.18;;;;;;;;;;5006661;28;20037;-74
2023/12/02 08:12:26;;;;;;;17.77;9.98;;;;;;;;;;5005979;28;20498;-74
2023/12/02 08:14:51;;;;;;;22.48;12.80;;;;;;;;;;5010400;28;20104;-74
2023/12/02 08:17:17;;;;;;;22.88;13.02;;;;;;;;;;5010677;28;20041;-74
2023/12/02 08:19:42;;;;;;;21.98;11.85;;;;;;;;;;5010540;28;20061;-74
2023/12/02 08:22:08;;;;;;;18.30;10.57;;;;;;;;;;5009260;28;20128;-74
2023/12/02 08:24:35;;;;;;;51.08;10.98;;;;;;;;;;5009169;28;20073;-74
2023/12/02 08:27:01;;;;;;;17.65;10.73;;;;;;;;;;5010651;28;20054;-74
2023/12/02 08:29:26;;;;;;;23.02;10.38;;;;;;;;;;5009980;28;20546;-74
2023/12/02 08:31:51;;;;;;;18.80;10.68;;;;;;;;;;5009971;28;20069;-74
2023/12/02 08:34:17;;;;;;;13.35;7.53;;;;;;;;;;4985242;28;20100;-74
2023/12/02 08:36:43;;;;;;;28.42;10.48;;;;;;;;;;5010154;28;20121;-75
2023/12/02 08:39:08;;;;;;;14.32;8.30;;;;;;;;;;5006519;28;20026;-75
2023/12/02 08:41:33;;;;;;;22.65;10.75;;;;;;;;;;5011302;28;20032;-75
2023/12/02 08:43:59;;;;;;;14.52;8.75;;;;;;;;;;5011769;28;20049;-75
2023/12/02 08:46:25;;;;;;;15.55;8.60;;;;;;;;;;5010342;28;20095;-74
2023/12/02 08:48:50;;;;;;;34.88;10.65;;;;;;;;;;5011204;28;20045;-74
2023/12/02 08:51:16;;;;;;;18.60;11.25;;;;;;;;;;5010505;28;20045;-74
2023/12/02 08:53:41;;;;;;;17.67;10.30;;;;;;;;;;5010260;28;20401;-76
2023/12/02 08:56:07;;;;;;;14.18;8.43;;;;;;;;;;5009072;28;20516;-75
2023/12/02 08:58:32;;;;;;;18.67;9.15;;;;;;;;;;5010054;28;20072;-76
2023/12/02 09:00:57;;;;;;;10.88;7.40;;;;;;;;;;5006954;28;20038;-75
2023/12/02 09:03:22;;;;;;;9.68;6.32;;;;;;;;;;5008906;28;20211;-75
2023/12/02 09:05:52;;;;;;;24.52;11.73;;;;;;;;;;5009235;28;20454;-75
2023/12/02 09:08:18;;;;;;;48.70;13.10;;;;;;;;;;5006583;28;20034;-75
2023/12/02 09:10:43;;;;;;;17.88;10.77;;;;;;;;;;5006830;28;20049;-75
2023/12/02 09:13:32;;;;;;;11.25;7.38;;;;;;;;;;5008779;28;20105;-75
2023/12/02 09:15:57;;;;;;;17.45;10.88;;;;;;;;;;5008749;28;20124;-74
2023/12/02 09:18:32;;;;;;;20.85;11.18;;;;;;;;;;5008715;28;20602;-74
2023/12/02 09:20:58;;;;;;;15.40;8.27;;;;;;;;;;5006853;28;20498;-74
2023/12/02 09:23:23;;;;;;;20.50;10.75;;;;;;;;;;5007201;28;20042;-74
2023/12/02 09:25:50;;;;;;;13.05;6.68;;;;;;;;;;5005964;28;20069;-74
2023/12/02 09:28:18;;;;;;;18.50;10.30;;;;;;;;;;5005748;28;20049;-75
2023/12/02 09:30:50;;;;;;;17.02;9.38;;;;;;;;;;5006221;28;20037;-75
2023/12/02 09:33:16;;;;;;;21.08;10.60;;;;;;;;;;5009690;28;20494;-75
2023/12/02 09:35:41;;;;;;;20.17;11.57;;;;;;;;;;5005993;28;20032;-74
2023/12/02 09:38:07;;;;;;;19.67;10.88;;;;;;;;;;5004039;28;20041;-74
2023/12/02 09:40:55;;;;;;;19.88;10.38;;;;;;;;;;5000827;28;20034;-75
2023/12/02 09:43:39;;;;;;;17.98;10.07;;;;;;;;;;5004626;28;20701;-75
2023/12/02 09:46:23;;;;;;;;;;;;;;;;;;5005401;28;20199;-75
2023/12/02 09:49:17;;;;;;;34.47;15.45;;;;;;;;;;5010594;28;19917;-75
2023/12/02 09:52:20;;;;;;;21.08;12.20;;;;;;;;;;5005657;28;20046;-75
2023/12/02 09:55:07;;;;;;;17.23;8.40;;;;;;;;;;5002349;28;20446;-75
2023/12/02 09:57:51;;;;;;;18.08;9.75;;;;;;;;;;5007353;28;20446;-75
2023/12/02 10:00:28;;;;;;;19.52;11.48;;;;;;;;;;5007603;28;20084;-75
2023/12/02 10:03:01;;;;;;;15.68;9.23;;;;;;;;;;5002939;28;20023;-75
2023/12/02 10:05:27;;;;;;;16.85;9.63;;;;;;;;;;5004919;28;20112;-75
2023/12/02 10:08:05;;;;;;;22.05;11.80;;;;;;;;;;4999923;28;20126;-75
2023/12/02 10:11:03;;;;;;;17.00;9.45;;;;;;;;;;5002228;28;20038;-75
2023/12/02 10:13:42;;;;;;;18.63;9.98;;;;;;;;;;5006148;28;20087;-75
2023/12/02 10:16:14;;;;;;;20.63;10.15;;;;;;;;;;4990435;28;20080;-75
2023/12/02 10:18:47;;;;;;;22.65;12.98;;;;;;;;;;5010692;28;20449;-75
2023/12/02 10:21:15;;;;;;;17.08;9.40;;;;;;;;;;5006316;28;20096;-74
2023/12/02 10:23:51;;;;;;;14.55;8.77;;;;;;;;;;5001726;28;20030;-76
2023/12/02 10:26:37;;;;;;;17.40;9.00;;;;;;;;;;4995844;28;20034;-76
2023/12/02 10:29:16;;;;;;;19.40;10.70;;;;;;;;;;5005740;28;20135;-75
2023/12/02 10:32:14;;;;;;;21.00;10.95;;;;;;;;;;4995373;28;20189;-75
2023/12/02 10:34:54;;;;;;;17.40;9.95;;;;;;;;;;5005864;28;20196;-75
2023/12/02 10:37:25;;;;;;;16.75;9.77;;;;;;;;;;4998679;28;20121;-74
2023/12/02 10:39:54;;;;;;;20.15;10.13;;;;;;;;;;5000789;28;20514;-74
2023/12/02 10:42:29;;;;;;;17.80;10.32;;;;;;;;;;5006500;28;20080;-74
2023/12/02 10:45:05;;;;;;;16.15;9.65;;;;;;;;;;5000889;28;20022;-76
2023/12/02 10:47:31;;;;;;;14.55;8.40;;;;;;;;;;5002876;28;20046;-76
2023/12/02 10:49:59;;;;;;;21.10;12.18;;;;;;;;;;5007053;28;20116;-78
2023/12/02 10:52:28;;;;;;;14.43;8.88;;;;;;;;;;5004248;28;20120;-77
2023/12/02 10:54:55;;;;;;;60.70;20.95;;;;;;;;;;5004761;28;20493;-77
2023/12/02 10:57:22;;;;;;;55.28;20.42;;;;;;;;;;5004446;28;20026;-75
2023/12/02 11:00:03;;;;;;;35.38;15.25;;;;;;;;;;5004406;28;20029;-77
2023/12/02 11:02:57;;;;;;;14.65;4.72;;;;;;;;;;5009838;28;20053;-76
2023/12/02 11:05:26;;;;;;;19.42;10.60;;;;;;;;;;5014209;28;20510;-77
2023/12/02 11:07:59;;;;;;;20.08;9.48;;;;;;;;;;4999271;28;20042;-76
2023/12/02 11:10:38;;;;;;;11.57;7.03;;;;;;;;;;5019215;28;20033;-77
2023/12/02 11:13:12;;;;;;;21.45;10.65;;;;;;;;;;5014264;28;20057;-77
2023/12/02 11:15:54;;;;;;;13.20;7.22;;;;;;;;;;5008021;28;20049;-77
2023/12/02 11:18:56;;;;;;;16.05;7.78;;;;;;;;;;5021634;28;20037;-77
2023/12/02 11:21:52;;;;;;;11.13;5.32;;;;;;;;;;4966112;28;20038;-77
2023/12/02 11:24:27;;;;;;;10.48;5.90;;;;;;;;;;5013474;28;20038;-76
2023/12/02 11:27:15;;;;;;;13.05;7.20;;;;;;;;;;4998505;28;20101;-78
2023/12/02 11:29:59;;;;;;;18.92;9.55;;;;;;;;;;4965946;28;20113;-77
2023/12/02 11:32:51;;;;;;;17.50;9.15;;;;;;;;;;5007479;28;20034;-78
2023/12/02 11:35:26;;;;;;;12.15;6.45;;;;;;;;;;5008694;28;20072;-77
2023/12/02 11:37:57;;;;;;;21.70;11.30;;;;;;;;;;5001768;28;20046;-77
2023/12/02 11:40:28;;;;;;;19.02;9.98;;;;;;;;;;4994621;28;20447;-79
2023/12/02 11:42:58;;;;;;;17.23;9.77;;;;;;;;;;5005611;28;20042;-77
2023/12/02 11:45:33;;;;;;;18.35;10.07;;;;;;;;;;4991976;28;20129;-79
2023/12/02 11:48:22;;;;;;;18.33;9.38;;;;;;;;;;5000622;28;20026;-76
2023/12/02 11:51:15;;;;;;;21.50;11.30;;;;;;;;;;5003343;28;20774;-78
2023/12/02 11:53:52;;;;;;;18.65;8.63;;;;;;;;;;5004806;28;20050;-77
2023/12/02 11:56:21;;;;;;;22.38;11.35;;;;;;;;;;4998074;28;20046;-77
2023/12/02 11:59:15;;;;;;;15.75;9.15;;;;;;;;;;5004159;28;20529;-78
2023/12/02 12:01:43;;;;;;;11.70;7.68;;;;;;;;;;4997275;28;20080;-77
2023/12/02 12:04:27;;;;;;;17.77;8.75;;;;;;;;;;4996791;28;20050;-77
2023/12/02 12:07:23;;;;;;;13.65;8.10;;;;;;;;;;5006477;28;20046;-78
2023/12/02 12:10:10;;;;;;;19.65;8.48;;;;;;;;;;5060475;23;20056;-79
2023/12/02 12:12:38;;;;;;;18.90;9.35;;;;;;;;;;5004571;28;20041;-78
2023/12/02 12:15:04;;;;;;;25.00;11.57;;;;;;;;;;5003922;28;20448;-81
2023/12/02 12:17:29;;;;;;;15.65;7.63;;;;;;;;;;5030916;28;20061;-78
2023/12/02 12:19:59;;;;;;;12.32;7.40;;;;;;;;;;5022538;28;20025;-79
2023/12/02 12:22:27;;;;;;;12.07;8.07;;;;;;;;;;5033247;28;20068;-79
2023/12/02 12:24:53;;;;;;;16.70;7.95;;;;;;;;;;5035999;28;20072;-80
2023/12/02 12:27:18;;;;;;;11.80;7.28;;;;;;;;;;5035872;28;20021;-79
2023/12/02 12:29:55;;;;;;;17.60;9.85;;;;;;;;;;5037245;28;20478;-80
2023/12/02 12:32:21;;;;;;;20.80;9.40;;;;;;;;;;5038271;28;20040;-82
2023/12/02 12:34:46;;;;;;;19.00;9.38;;;;;;;;;;5033500;28;20030;-79
2023/12/02 12:37:18;;;;;;;14.65;9.02;;;;;;;;;;5028193;28;20065;-81
2023/12/02 12:39:44;;;;;;;13.73;8.57;;;;;;;;;;5045307;28;20021;-80
2023/12/02 12:42:10;;;;;;;20.45;11.27;;;;;;;;;;5041273;28;20022;-81
2023/12/02 12:44:39;;;;;;;13.73;8.57;;;;;;;;;;5043613;28;20113;-81
2023/12/02 12:47:15;;;;;;;26.30;9.88;;;;;;;;;;5040279;28;20551;-80
2023/12/02 12:49:42;;;;;;;11.32;7.10;;;;;;;;;;5037685;28;20049;-81
2023/12/02 12:52:09;;;;;;;13.85;8.20;;;;;;;;;;5037575;28;20489;-81
2023/12/02 12:54:45;;;;;;;18.15;8.65;;;;;;;;;;5037906;28;20063;-81
2023/12/02 12:57:11;;;;;;;17.77;9.52;;;;;;;;;;5038045;28;20026;-80
2023/12/02 12:59:37;;;;;;;15.93;9.68;;;;;;;;;;5028485;28;20025;-80
2023/12/02 13:02:22;;;;;;;15.02;8.75;;;;;;;;;;5037226;28;20498;-81
2023/12/02 13:04:58;;;;;;;20.85;10.82;;;;;;;;;;5038383;28;20104;-81
2023/12/02 13:07:35;;;;;;;105.20;39.00;;;;;;;;;;5036495;28;20033;-81
2023/12/02 13:10:02;;;;;;;25.85;13.77;;;;;;;;;;5017332;28;20184;-82
2023/12/02 13:12:34;;;;;;;12.60;7.50;;;;;;;;;;5037164;28;20572;-82
2023/12/02 13:15:05;;;;;;;11.50;7.18;;;;;;;;;;5037705;28;20069;-81
2023/12/02 13:17:32;;;;;;;13.20;7.32;;;;;;;;;;5038591;28;20048;-81
2023/12/02 13:20:00;;;;;;;25.70;13.15;;;;;;;;;;5038976;28;20061;-81
2023/12/02 13:22:27;;;;;;;23.10;13.38;;;;;;;;;;5036838;28;20030;-81
2023/12/02 13:24:59;;;;;;;28.65;14.38;;;;;;;;;;5037847;28;20046;-81
2023/12/02 13:27:36;;;;;;;23.77;11.30;;;;;;;;;;5037715;28;20049;-81
2023/12/02 13:30:05;;;;;;;24.25;12.30;;;;;;;;;;5037631;28;20025;-80
2023/12/02 13:32:36;;;;;;;25.00;12.10;;;;;;;;;;5034403;28;20040;-81
2023/12/02 13:35:08;;;;;;;22.33;11.10;;;;;;;;;;5020081;28;20110;-80
2023/12/02 13:37:58;;;;;;;15.55;8.27;;;;;;;;;;5018898;28;20068;-83
2023/12/02 13:40:29;;;;;;;14.05;6.88;;;;;;;;;;5035877;28;20117;-83
2023/12/02 13:42:58;;;;;;;16.60;9.25;;;;;;;;;;5036040;28;20049;-80
2023/12/02 13:45:25;;;;;;;20.20;10.13;;;;;;;;;;5036251;28;20045;-81
2023/12/02 13:48:00;;;;;;;18.42;8.70;;;;;;;;;;5031171;28;20086;-83
2023/12/02 13:50:43;;;;;;;57.60;20.17;;;;;;;;;;5037876;28;20099;-83
2023/12/02 13:53:47;;;;;;;64.70;25.55;;;;;;;;;;5020172;28;20040;-83
2023/12/02 13:56:22;;;;;;;50.75;19.67;;;;;;;;;;4989870;28;20094;-83
2023/12/02 13:58:57;;;;;;;19.95;11.10;;;;;;;;;;5029002;28;20117;-82
2023/12/02 14:01:33;;;;;;;17.85;10.80;;;;;;;;;;5020307;28;20392;-81
2023/12/02 14:04:13;;;;;;;18.98;11.40;;;;;;;;;;5020294;28;20045;-80
2023/12/02 14:06:59;;;;;;;11.77;7.90;;;;;;;;;;5033085;28;20054;-82
2023/12/02 14:09:26;;;;;;;17.40;10.50;;;;;;;;;;5037893;28;20167;-82
2023/12/02 14:12:10;;;;;;;17.75;9.90;;;;;;;;;;5037761;28;20112;-81
2023/12/02 14:14:55;;;;;;;25.40;10.13;;;;;;;;;;5038560;28;20117;-81
2023/12/02 14:17:55;;;;;;;14.48;8.05;;;;;;;;;;5036029;28;20037;-81
2023/12/02 14:20:42;;;;;;;24.15;10.93;;;;;;;;;;5035567;28;20041;-83
2023/12/02 14:23:12;;;;;;;22.05;11.80;;;;;;;;;;5031838;28;20065;-83
2023/12/02 14:25:58;;;;;;;22.67;12.95;;;;;;;;;;5028526;28;20408;-83
2023/12/02 14:28:29;;;;;;;22.15;12.63;;;;;;;;;;4940545;29;20075;-81
2023/12/02 14:31:16;;;;;;;18.10;10.32;;;;;;;;;;5022768;28;20041;-83
2023/12/02 14:34:00;;;;;;;19.80;10.45;;;;;;;;;;5033088;28;20029;-83
2023/12/02 14:36:58;;;;;;;12.93;7.40;;;;;;;;;;5036570;28;20099;-84
2023/12/02 14:39:58;;;;;;;32.78;16.85;;;;;;;;;;5031014;28;20036;-81
2023/12/02 14:43:00;;;;;;;17.95;9.30;;;;;;;;;;5014564;28;20079;-81